KTMB/TMB METAR and TAF weather

Enter ICAO airport designator
Station Type Date Time Source
KTMB METAR 2019/08/24 08:53 UTC NOAA

KTMB 240853Z AUTO 14004KT 10SM CLR 26/25 A2990 RMK AO2 SLP124 T02610250 55003


Station Type Date Time Source
KTMB Decoded METAR 2019/08/24 08:53 UTC NOAA

Station name not available
Aug 24, 2019 - 04:53 AM EDT / 2019.08.24 0853 UTC
Wind: from the SE (140 degrees) at 5 MPH (4 KT):0
Visibility: 10 mile(s):0
Sky conditions: clear
Temperature: 79.0 F (26.1 C)
Dew Point: 77.0 F (25.0 C)
Relative Humidity: 93%
Pressure (altimeter): 29.9 in. Hg (1012 hPa)
Pressure tendency: 0.01 inches (0.3 hPa) lower than three hours ago
ob: KTMB 240853Z AUTO 14004KT 10SM CLR 26/25 A2990 RMK AO2 SLP124 T02610250 55003
cycle: 9

Station Type Date Time Source
KTMB TAF 2019/08/24 09:58 UTC NOAA

TAF
AMD KTMB 240858Z 2409/2506 VRB06KT P6SM VCSH SCT025 BKN070
FM241600 18008KT P6SM VCTS SCT030CB BKN060
FM250000 20006KT P6SM FEW025 SCT035 BKN250

Example: see airport list